Time;durP1;ratioP1;P1;durP2;ratioP2;P2;SDS_P1;SDS_P2;PMS_P1;PMS_P2;Temp;Humidity;BMP_temperature;BMP_pressure;BME280_temperature;BME280_humidity;BME280_pressure;Samples;Min_cycle;Max_cycle;Signal;HPM_P1;HPM_P2
2022/11/30 00:00:55;;;;;;;9.13;7.00;;;19.80;42.70;;;;;;5135437;27;20479;-10
2022/11/30 00:03:21;;;;;;;8.98;7.43;;;19.80;42.70;;;;;;5135385;27;20094;-10
2022/11/30 00:05:46;;;;;;;8.80;6.85;;;19.80;42.70;;;;;;5135376;27;20069;-10
2022/11/30 00:08:12;;;;;;;8.75;7.10;;;19.80;42.70;;;;;;5135304;27;20058;-10
2022/11/30 00:10:39;;;;;;;8.82;6.85;;;19.80;42.70;;;;;;5135277;27;20098;-10
2022/11/30 00:13:05;;;;;;;8.57;7.10;;;19.80;42.80;;;;;;5135778;27;20039;-10
2022/11/30 00:15:30;;;;;;;8.27;7.07;;;19.80;42.70;;;;;;5135151;28;20051;-10
2022/11/30 00:17:57;;;;;;;9.95;7.47;;;19.80;42.80;;;;;;5135107;27;20079;-10
2022/11/30 00:20:23;;;;;;;8.18;6.95;;;19.80;42.80;;;;;;5135112;27;20123;-10
2022/11/30 00:22:48;;;;;;;9.02;7.57;;;19.80;42.80;;;;;;5134953;27;20079;-10
2022/11/30 00:25:15;;;;;;;9.13;7.57;;;19.80;42.90;;;;;;5135190;28;20434;-10
2022/11/30 00:27:40;;;;;;;9.75;7.70;;;19.80;42.70;;;;;;5135009;27;20491;-10
2022/11/30 00:30:07;;;;;;;7.90;7.10;;;19.80;42.70;;;;;;5134554;27;20066;-10
2022/11/30 00:32:33;;;;;;;10.02;8.05;;;19.80;42.70;;;;;;5135122;28;20047;-10
2022/11/30 00:34:58;;;;;;;9.32;6.97;;;19.80;42.70;;;;;;5116535;28;20055;-10
2022/11/30 00:37:24;;;;;;;8.00;7.07;;;19.90;42.70;;;;;;5135068;28;20114;-10
2022/11/30 00:39:50;;;;;;;10.77;7.70;;;19.80;42.70;;;;;;5134999;27;20054;-10
2022/11/30 00:42:15;;;;;;;10.23;7.75;;;19.80;42.70;;;;;;5135000;27;20043;-10
2022/11/30 00:44:41;;;;;;;8.93;7.35;;;19.80;42.70;;;;;;5135085;28;20046;-10
2022/11/30 00:47:07;;;;;;;9.27;6.95;;;19.80;42.60;;;;;;5134700;28;20103;-10
2022/11/30 00:49:33;;;;;;;9.57;7.15;;;19.80;42.60;;;;;;5134474;28;20058;-10
2022/11/30 00:52:00;;;;;;;8.95;7.05;;;19.80;42.60;;;;;;5134970;27;20043;-10
2022/11/30 00:54:25;;;;;;;9.25;7.18;;;19.90;42.60;;;;;;5134680;27;20051;-10
2022/11/30 00:56:51;;;;;;;8.77;7.40;;;19.90;43.20;;;;;;5134509;27;20372;-10
2022/11/30 00:59:16;;;;;;;8.65;7.43;;;19.80;42.60;;;;;;5134348;28;20042;-10
2022/11/30 01:01:42;;;;;;;9.55;7.00;;;19.80;42.60;;;;;;5134520;28;20093;-10
2022/11/30 01:04:08;;;;;;;9.63;7.80;;;19.90;42.60;;;;;;5134637;27;20051;-10
2022/11/30 01:06:34;;;;;;;7.63;6.78;;;19.90;42.60;;;;;;5134423;27;20384;-10
2022/11/30 01:09:01;;;;;;;8.60;7.43;;;19.90;42.60;;;;;;5134234;27;20090;-10
2022/11/30 01:11:29;;;;;;;8.32;7.13;;;19.90;42.60;;;;;;5115737;28;20104;-10
2022/11/30 01:13:56;;;;;;;8.95;7.40;;;19.90;42.60;;;;;;5134550;28;20059;-10
2022/11/30 01:16:26;;;;;;;9.43;7.22;;;19.80;42.50;;;;;;5134919;27;20138;-10
2022/11/30 01:18:52;;;;;;;9.10;7.45;;;19.90;42.60;;;;;;5134222;27;20047;-10
2022/11/30 01:21:21;;;;;;;9.55;7.63;;;19.90;42.70;;;;;;5134714;27;20059;-10
2022/11/30 01:23:47;;;;;;;8.75;7.53;;;19.80;42.60;;;;;;5134082;27;20513;-10
2022/11/30 01:26:13;;;;;;;8.43;7.10;;;19.80;42.60;;;;;;5134136;27;20085;-10
2022/11/30 01:28:39;;;;;;;9.77;7.38;;;19.80;42.70;;;;;;5134061;28;20376;-10
2022/11/30 01:31:07;;;;;;;8.85;7.45;;;19.80;42.70;;;;;;5133827;27;20134;-10
2022/11/30 01:33:34;;;;;;;9.02;7.28;;;19.80;42.70;;;;;;5133712;27;20402;-10
2022/11/30 01:36:04;;;;;;;7.30;6.60;;;19.80;42.60;;;;;;5133962;28;20062;-10
2022/11/30 01:38:41;;;;;;;9.40;7.25;;;19.80;42.60;;;;;;5133895;28;20086;-10
2022/11/30 01:41:08;;;;;;;8.63;7.35;;;19.80;42.60;;;;;;5133921;28;20055;-10
2022/11/30 01:43:41;;;;;;;9.35;7.72;;;19.80;42.60;;;;;;5133835;27;20074;-10
2022/11/30 01:46:25;;;;;;;8.85;7.07;;;19.80;42.60;;;;;;5134107;28;20043;-10
2022/11/30 01:49:17;;;;;;;9.50;7.50;;;19.90;42.60;;;;;;5134011;27;20059;-11
2022/11/30 01:51:47;;;;;;;;;;;19.80;42.60;;;;;;5134077;27;20413;-10
2022/11/30 01:54:21;;;;;;;9.55;7.82;;;19.80;42.60;;;;;;5133878;28;19957;-10
2022/11/30 01:56:52;;;;;;;8.48;7.45;;;19.80;42.60;;;;;;5134285;28;20142;-10
2022/11/30 01:59:20;;;;;;;8.27;7.03;;;19.80;42.60;;;;;;5133560;27;20128;-10
2022/11/30 02:01:46;;;;;;;8.75;7.20;;;19.80;42.60;;;;;;5133619;28;20050;-10
2022/11/30 02:04:23;;;;;;;9.32;7.55;;;19.80;42.60;;;;;;5133757;27;20057;-10
2022/11/30 02:06:49;;;;;;;9.50;7.65;;;19.80;42.60;;;;;;5133824;27;20051;-10
2022/11/30 02:09:18;;;;;;;8.68;7.45;;;19.80;42.60;;;;;;5133635;28;20047;-10
2022/11/30 02:11:43;;;;;;;9.68;8.10;;;19.90;42.60;;;;;;5133579;28;20051;-10
2022/11/30 02:14:31;;;;;;;9.40;7.72;;;19.80;42.60;;;;;;5133420;28;20440;-10
2022/11/30 02:16:59;;;;;;;9.55;7.25;;;19.80;42.60;;;;;;5133418;28;20057;-10
2022/11/30 02:20:15;;;;;;;8.15;6.85;;;19.90;42.60;;;;;;5114470;28;20083;-10
2022/11/30 02:22:50;;;;;;;9.18;7.65;;;19.80;43.10;;;;;;5050201;28;20049;-10
2022/11/30 02:25:27;;;;;;;9.27;7.40;;;19.90;42.90;;;;;;5050374;28;20053;-10
2022/11/30 02:27:53;;;;;;;9.18;7.80;;;19.90;42.60;;;;;;5105698;27;20058;-10
2022/11/30 02:30:21;;;;;;;8.73;7.53;;;19.90;42.60;;;;;;5133258;28;20047;-10
2022/11/30 02:32:55;;;;;;;8.48;7.32;;;19.90;42.60;;;;;;5133261;27;20067;-10
2022/11/30 02:35:26;;;;;;;9.95;8.05;;;19.80;42.60;;;;;;5133256;28;20388;-10
2022/11/30 02:37:53;;;;;;;9.63;8.13;;;19.80;42.60;;;;;;5133367;27;20075;-10
2022/11/30 02:40:20;;;;;;;9.68;7.68;;;19.80;42.60;;;;;;5133439;27;20043;-10
2022/11/30 02:42:50;;;;;;;8.55;7.35;;;19.80;42.70;;;;;;5133073;27;20479;-10
2022/11/30 02:45:25;;;;;;;10.75;7.55;;;19.80;42.70;;;;;;5134209;27;20043;-10
2022/11/30 02:48:06;;;;;;;9.57;7.63;;;19.80;42.70;;;;;;5136663;27;20051;-10
2022/11/30 02:50:38;;;;;;;8.90;7.15;;;19.80;42.60;;;;;;5136752;27;20047;-10
2022/11/30 02:53:04;;;;;;;8.85;7.18;;;19.80;42.60;;;;;;5136899;27;20039;-10
2022/11/30 02:55:30;;;;;;;8.65;7.18;;;19.80;42.70;;;;;;5136828;27;20070;-10
2022/11/30 02:57:56;;;;;;;9.40;7.65;;;19.80;42.60;;;;;;5136402;28;20456;-10
2022/11/30 03:00:23;;;;;;;8.98;7.40;;;19.80;42.70;;;;;;5136473;27;20055;-10
2022/11/30 03:02:50;;;;;;;9.98;7.20;;;19.80;42.70;;;;;;5136339;27;20043;-10
2022/11/30 03:05:16;;;;;;;8.65;7.47;;;19.80;42.70;;;;;;5136259;27;20064;-10
2022/11/30 03:07:41;;;;;;;8.43;7.15;;;19.80;42.70;;;;;;5136389;28;20039;-10
2022/11/30 03:10:08;;;;;;;9.60;7.38;;;19.80;42.60;;;;;;5136174;27;20055;-10
2022/11/30 03:12:33;;;;;;;8.45;7.22;;;19.80;42.60;;;;;;5136568;27;20475;-10
2022/11/30 03:14:59;;;;;;;10.18;8.32;;;19.80;42.60;;;;;;5136163;28;20058;-10
2022/11/30 03:17:25;;;;;;;10.43;7.90;;;19.80;42.60;;;;;;5136429;28;20055;-10
2022/11/30 03:19:51;;;;;;;9.65;7.80;;;19.80;42.60;;;;;;5136356;27;20058;-10
2022/11/30 03:22:17;;;;;;;9.25;7.00;;;19.80;42.60;;;;;;5135973;27;20063;-10
2022/11/30 03:24:42;;;;;;;9.18;7.68;;;19.80;42.60;;;;;;5136108;28;20055;-10
2022/11/30 03:27:08;;;;;;;9.05;7.05;;;19.80;42.60;;;;;;5136284;27;20059;-10
2022/11/30 03:29:34;;;;;;;8.10;6.95;;;19.80;42.60;;;;;;5136546;27;20356;-10
2022/11/30 03:31:59;;;;;;;9.02;7.43;;;19.80;42.60;;;;;;5136233;27;20126;-10
2022/11/30 03:34:26;;;;;;;9.18;7.82;;;19.80;42.60;;;;;;5135980;27;20133;-10
2022/11/30 03:36:52;;;;;;;9.57;7.38;;;19.80;42.60;;;;;;5136286;27;20057;-10
2022/11/30 03:39:18;;;;;;;9.13;7.55;;;19.80;42.60;;;;;;5135810;27;20059;-10
2022/11/30 03:41:44;;;;;;;9.77;8.20;;;19.80;43.20;;;;;;5135863;27;20150;-10
2022/11/30 03:44:09;;;;;;;8.57;7.05;;;19.80;42.60;;;;;;5135649;28;20574;-10
2022/11/30 03:46:35;;;;;;;10.43;8.20;;;19.80;42.60;;;;;;5136051;28;20055;-10
2022/11/30 03:49:00;;;;;;;8.88;7.63;;;19.90;42.60;;;;;;5135542;27;20129;-10
2022/11/30 03:51:26;;;;;;;10.45;7.65;;;19.80;42.50;;;;;;5135545;28;20058;-10
2022/11/30 03:53:52;;;;;;;7.93;7.10;;;19.80;42.50;;;;;;5135673;28;20086;-10
2022/11/30 03:56:17;;;;;;;9.13;7.43;;;19.80;42.50;;;;;;5135197;27;20506;-10
2022/11/30 03:58:43;;;;;;;9.48;8.00;;;19.90;42.60;;;;;;5135543;27;20055;-10
2022/11/30 04:01:14;;;;;;;8.68;7.78;;;19.80;42.50;;;;;;5135480;28;20058;-10
2022/11/30 04:03:40;;;;;;;8.57;7.53;;;19.80;42.90;;;;;;5135367;27;20083;-10
2022/11/30 04:06:07;;;;;;;10.30;8.00;;;19.80;42.60;;;;;;5135470;27;20524;-10
2022/11/30 04:08:33;;;;;;;9.10;7.88;;;19.80;42.70;;;;;;5135244;28;20055;-10
2022/11/30 04:11:01;;;;;;;10.00;8.00;;;19.80;42.70;;;;;;5135337;28;20051;-10
2022/11/30 04:13:28;;;;;;;9.77;7.72;;;19.80;42.60;;;;;;5135277;28;20054;-10
2022/11/30 04:15:54;;;;;;;10.05;7.97;;;19.80;42.60;;;;;;5135274;27;20047;-10
2022/11/30 04:18:22;;;;;;;10.82;8.15;;;19.80;42.60;;;;;;5135051;27;20061;-10
2022/11/30 04:20:52;;;;;;;9.80;7.47;;;19.80;42.60;;;;;;5134960;28;20039;-10
2022/11/30 04:23:18;;;;;;;10.68;8.02;;;19.80;42.60;;;;;;5135035;28;20460;-10
2022/11/30 04:25:44;;;;;;;10.52;7.95;;;19.80;42.60;;;;;;5135117;27;20059;-10
2022/11/30 04:28:10;;;;;;;10.05;7.55;;;19.80;42.60;;;;;;5116670;28;20059;-10
2022/11/30 04:30:37;;;;;;;9.48;8.07;;;19.80;42.60;;;;;;5135573;28;20053;-10
2022/11/30 04:33:04;;;;;;;9.65;7.95;;;19.80;42.60;;;;;;5116637;28;20048;-10
2022/11/30 04:35:30;;;;;;;9.57;7.70;;;19.80;42.60;;;;;;5135556;27;20047;-10
2022/11/30 04:37:55;;;;;;;9.88;8.13;;;19.80;42.60;;;;;;5134716;27;20055;-10
2022/11/30 04:40:21;;;;;;;9.02;7.90;;;19.80;42.60;;;;;;5135242;27;20062;-10
2022/11/30 04:42:47;;;;;;;9.75;7.47;;;19.80;42.50;;;;;;5134791;27;20039;-10
2022/11/30 04:45:13;;;;;;;8.93;7.15;;;19.80;42.50;;;;;;5135047;27;20065;-10
2022/11/30 04:47:39;;;;;;;10.77;7.95;;;19.80;42.60;;;;;;5134531;28;20051;-10
2022/11/30 04:50:06;;;;;;;11.40;8.48;;;19.80;42.60;;;;;;5134552;27;20487;-10
2022/11/30 04:52:32;;;;;;;10.55;7.72;;;19.80;42.60;;;;;;5135100;28;20127;-10
2022/11/30 04:54:57;;;;;;;9.45;7.80;;;19.80;42.60;;;;;;5134499;28;20077;-10
2022/11/30 04:57:23;;;;;;;9.50;8.15;;;19.80;42.60;;;;;;5134975;28;20046;-10
2022/11/30 04:59:49;;;;;;;9.95;8.38;;;19.80;42.50;;;;;;5134707;27;20043;-10
2022/11/30 05:02:14;;;;;;;9.63;7.72;;;19.80;42.50;;;;;;5134540;27;20083;-10
2022/11/30 05:04:40;;;;;;;10.00;7.75;;;19.80;42.60;;;;;;5134283;27;20058;-10
2022/11/30 05:07:06;;;;;;;9.43;7.78;;;19.80;42.50;;;;;;5134173;27;20055;-10
2022/11/30 05:09:32;;;;;;;8.75;7.38;;;19.80;42.60;;;;;;5133626;27;20076;-10
2022/11/30 05:11:58;;;;;;;9.45;7.57;;;19.80;42.60;;;;;;5134793;27;20483;-10
2022/11/30 05:14:23;;;;;;;9.40;7.65;;;19.80;42.60;;;;;;5134638;28;20055;-10
2022/11/30 05:16:49;;;;;;;8.73;7.32;;;19.80;42.60;;;;;;5134580;28;20147;-10
2022/11/30 05:19:15;;;;;;;9.27;7.85;;;19.80;42.60;;;;;;5134262;28;20043;-10
2022/11/30 05:21:42;;;;;;;10.02;8.00;;;19.80;42.60;;;;;;5134267;28;20076;-10
2022/11/30 05:24:07;;;;;;;9.35;7.75;;;19.80;42.60;;;;;;5134008;28;20054;-10
2022/11/30 05:26:34;;;;;;;9.43;7.78;;;19.80;42.60;;;;;;5134420;28;20055;-10
2022/11/30 05:28:59;;;;;;;11.00;8.13;;;19.80;42.60;;;;;;5134052;28;20081;-10
2022/11/30 05:31:25;;;;;;;9.00;7.75;;;19.80;42.50;;;;;;5134165;28;20074;-10
2022/11/30 05:33:51;;;;;;;9.55;7.78;;;19.80;42.60;;;;;;5134040;28;20127;-10
2022/11/30 05:36:17;;;;;;;10.52;7.50;;;19.80;42.50;;;;;;5134353;28;20047;-10
2022/11/30 05:38:43;;;;;;;8.75;7.22;;;19.80;42.60;;;;;;5133893;27;20119;-10
2022/11/30 05:41:09;;;;;;;10.00;7.68;;;19.90;42.60;;;;;;5134246;27;20077;-10
2022/11/30 05:43:35;;;;;;;9.18;7.05;;;19.80;42.60;;;;;;5133845;28;20383;-10
2022/11/30 05:46:02;;;;;;;8.80;7.53;;;19.80;43.20;;;;;;5115444;28;20053;-10
2022/11/30 05:48:29;;;;;;;8.85;7.47;;;19.80;42.70;;;;;;5133722;28;20073;-10
2022/11/30 05:50:54;;;;;;;9.02;7.38;;;19.80;42.70;;;;;;5134024;27;20474;-10
2022/11/30 05:53:20;;;;;;;10.23;7.82;;;19.80;42.70;;;;;;5133764;28;20903;-10
2022/11/30 05:55:46;;;;;;;9.52;7.65;;;19.80;42.70;;;;;;5134155;27;20054;-10
2022/11/30 05:58:12;;;;;;;10.20;7.30;;;19.80;42.80;;;;;;5133685;28;20407;-10
2022/11/30 06:00:37;;;;;;;9.52;7.90;;;19.80;42.70;;;;;;5133593;27;20513;-10
2022/11/30 06:03:03;;;;;;;8.95;7.95;;;19.80;42.70;;;;;;5133496;27;20395;-10
2022/11/30 06:05:29;;;;;;;10.00;7.57;;;19.80;42.70;;;;;;5133566;27;20116;-10
2022/11/30 06:07:57;;;;;;;10.52;7.38;;;19.80;42.80;;;;;;5133406;28;20051;-10
2022/11/30 06:10:24;;;;;;;8.63;7.10;;;19.80;42.80;;;;;;5133549;27;20057;-10
2022/11/30 06:12:50;;;;;;;8.73;7.28;;;19.80;42.80;;;;;;5133395;27;20047;-10
2022/11/30 06:15:17;;;;;;;9.07;7.63;;;19.80;42.80;;;;;;5134014;27;20050;-10
2022/11/30 06:17:43;;;;;;;9.85;7.50;;;19.80;42.80;;;;;;5133254;28;20495;-10
2022/11/30 06:20:09;;;;;;;9.50;7.82;;;19.80;42.80;;;;;;5135395;27;20051;-10
2022/11/30 06:22:34;;;;;;;8.75;6.65;;;19.80;42.80;;;;;;5136963;27;20051;-10
2022/11/30 06:25:00;;;;;;;8.50;6.80;;;19.80;42.80;;;;;;5137352;27;20051;-10
2022/11/30 06:27:30;;;;;;;7.68;6.88;;;19.80;42.90;;;;;;5136884;27;20055;-10
2022/11/30 06:29:56;;;;;;;8.77;7.55;;;19.80;42.90;;;;;;5137100;28;20099;-10
2022/11/30 06:32:22;;;;;;;10.02;7.30;;;19.80;42.80;;;;;;5136801;28;20093;-10
2022/11/30 06:34:47;;;;;;;9.05;7.07;;;19.80;42.80;;;;;;5136829;27;20483;-10
2022/11/30 06:37:13;;;;;;;9.15;7.28;;;19.80;42.80;;;;;;5136830;27;20047;-10
2022/11/30 06:39:38;;;;;;;8.77;7.75;;;19.80;42.80;;;;;;5136523;28;20059;-10
2022/11/30 06:42:04;;;;;;;8.95;7.20;;;19.80;42.80;;;;;;5136720;27;20058;-10
2022/11/30 06:44:30;;;;;;;9.55;7.28;;;19.90;42.90;;;;;;5136576;28;20047;-10
2022/11/30 06:46:55;;;;;;;8.38;7.43;;;19.90;42.90;;;;;;5136704;27;20065;-10
2022/11/30 06:49:21;;;;;;;8.73;7.82;;;19.80;42.80;;;;;;5118512;28;20090;-10
2022/11/30 06:51:46;;;;;;;8.02;6.80;;;19.80;42.80;;;;;;5136481;28;20083;-10
2022/11/30 06:54:12;;;;;;;8.60;7.03;;;19.80;42.90;;;;;;5136502;27;20081;-10
2022/11/30 06:56:38;;;;;;;8.63;6.97;;;19.80;42.90;;;;;;5136563;28;20587;-10
2022/11/30 06:59:03;;;;;;;7.63;6.80;;;19.80;42.90;;;;;;5136469;27;20086;-10
2022/11/30 07:01:29;;;;;;;8.63;7.30;;;19.90;42.90;;;;;;5136952;27;20061;-10
2022/11/30 07:03:54;;;;;;;8.73;6.80;;;19.80;42.90;;;;;;5136397;27;20053;-10
2022/11/30 07:06:20;;;;;;;9.25;7.30;;;19.80;42.90;;;;;;5136195;28;20051;-10
2022/11/30 07:08:46;;;;;;;10.32;7.57;;;19.80;42.90;;;;;;5135841;27;20414;-10
2022/11/30 07:11:12;;;;;;;8.82;7.45;;;19.90;43.00;;;;;;5136077;27;20140;-10
2022/11/30 07:13:38;;;;;;;9.45;7.88;;;19.80;42.90;;;;;;5136294;27;20134;-10
2022/11/30 07:16:05;;;;;;;8.52;7.10;;;19.80;42.90;;;;;;5136298;28;20055;-10
2022/11/30 07:18:31;;;;;;;9.13;7.35;;;19.80;42.90;;;;;;5135896;27;20115;-10
2022/11/30 07:20:59;;;;;;;9.50;7.32;;;19.80;42.90;;;;;;5135730;28;20398;-10
2022/11/30 07:26:10;;;;;;;8.93;7.30;;;19.90;42.90;;;;;;5136254;27;20051;-10
2022/11/30 07:28:41;;;;;;;8.32;7.15;;;19.90;42.90;;;;;;5136078;27;20130;-10
2022/11/30 07:31:30;;;;;;;7.85;6.63;;;19.90;43.00;;;;;;5135448;27;20051;-10
2022/11/30 07:33:57;;;;;;;8.85;6.80;;;19.90;42.90;;;;;;5135850;27;20039;-10
2022/11/30 07:36:25;;;;;;;8.85;6.80;;;19.90;43.00;;;;;;5135950;27;20489;-10
2022/11/30 07:38:51;;;;;;;8.57;7.43;;;19.90;43.00;;;;;;5135588;27;20125;-10
2022/11/30 07:41:17;;;;;;;9.38;7.00;;;19.90;42.90;;;;;;5135550;27;20051;-10
2022/11/30 07:43:42;;;;;;;8.90;7.57;;;19.80;43.00;;;;;;5135544;27;20054;-10
2022/11/30 07:46:13;;;;;;;8.88;7.13;;;19.90;43.00;;;;;;5135448;27;20051;-10
2022/11/30 07:48:39;;;;;;;6.35;5.15;;;19.90;43.00;;;;;;5135838;27;20083;-10
2022/11/30 07:51:24;;;;;;;8.95;7.38;;;19.90;43.50;;;;;;5135725;28;20123;-10
2022/11/30 07:53:50;;;;;;;9.23;6.95;;;19.80;43.00;;;;;;5135559;28;20043;-10
2022/11/30 07:56:18;;;;;;;8.18;6.78;;;19.90;43.00;;;;;;5135442;27;20517;-10
2022/11/30 07:58:45;;;;;;;7.30;6.28;;;19.90;43.00;;;;;;5135217;27;20472;-10
2022/11/30 08:01:14;;;;;;;9.30;7.65;;;19.90;43.00;;;;;;5135696;27;20043;-10
2022/11/30 08:03:39;;;;;;;10.02;7.57;;;19.80;43.00;;;;;;5117217;28;20146;-10
2022/11/30 08:06:10;;;;;;;8.23;7.18;;;19.90;43.00;;;;;;5135198;27;20538;-10
2022/11/30 08:08:38;;;;;;;8.80;7.05;;;19.90;43.00;;;;;;5135628;27;20452;-10
2022/11/30 08:11:05;;;;;;;8.85;7.38;;;19.90;42.90;;;;;;5135501;28;20055;-10
2022/11/30 08:13:31;;;;;;;8.77;7.60;;;19.90;42.90;;;;;;5135061;28;20071;-10
2022/11/30 08:16:09;;;;;;;8.60;7.15;;;19.90;42.90;;;;;;5135193;27;20078;-10
2022/11/30 08:18:35;;;;;;;8.68;6.50;;;19.90;42.90;;;;;;5135154;27;20047;-10
2022/11/30 08:21:03;;;;;;;9.20;7.28;;;19.90;42.90;;;;;;5135142;28;20058;-10
2022/11/30 08:23:31;;;;;;;9.38;7.28;;;19.90;42.90;;;;;;5116997;28;20567;-10
2022/11/30 08:26:01;;;;;;;7.90;6.82;;;19.90;43.50;;;;;;5135141;27;20062;-10
2022/11/30 08:28:29;;;;;;;9.43;6.95;;;19.90;42.90;;;;;;5135239;27;20066;-10
2022/11/30 08:31:00;;;;;;;8.15;6.80;;;19.90;42.90;;;;;;5134862;28;20047;-10
2022/11/30 08:33:26;;;;;;;8.80;7.00;;;19.90;43.00;;;;;;5134957;28;20039;-10
2022/11/30 08:35:51;;;;;;;8.90;6.95;;;19.90;42.90;;;;;;5135095;28;20058;-10
2022/11/30 08:38:17;;;;;;;8.52;7.28;;;19.90;42.90;;;;;;5134150;27;20051;-10
2022/11/30 08:40:43;;;;;;;7.82;6.80;;;19.90;42.90;;;;;;5134561;27;20059;-10
2022/11/30 08:43:08;;;;;;;8.75;6.93;;;19.90;42.90;;;;;;5133238;27;20047;-10
2022/11/30 08:45:34;;;;;;;9.40;7.35;;;19.90;42.90;;;;;;5134516;27;20135;-10
2022/11/30 08:48:00;;;;;;;8.85;7.65;;;19.90;42.90;;;;;;5115914;27;20051;-10
2022/11/30 08:50:26;;;;;;;8.70;7.20;;;19.90;43.10;;;;;;5134512;27;20055;-10
2022/11/30 08:52:55;;;;;;;9.85;8.18;;;19.90;43.10;;;;;;5134432;27;20107;-10
2022/11/30 08:55:20;;;;;;;11.43;8.77;;;19.90;43.00;;;;;;5134378;27;20092;-10
2022/11/30 08:57:46;;;;;;;13.57;10.15;;;19.90;42.90;;;;;;5134076;27;20406;-10
2022/11/30 09:00:12;;;;;;;15.70;10.98;;;19.80;42.80;;;;;;5134043;27;20051;-10
2022/11/30 09:02:38;;;;;;;15.85;10.90;;;19.80;42.70;;;;;;5133915;27;20051;-10
2022/11/30 09:05:05;;;;;;;15.95;11.30;;;19.80;42.70;;;;;;5134052;27;20046;-10
2022/11/30 09:07:31;;;;;;;15.93;10.85;;;19.80;42.80;;;;;;5134063;27;20603;-11
2022/11/30 09:09:56;;;;;;;17.83;11.00;;;19.80;42.90;;;;;;5134690;27;20047;-11
2022/11/30 09:12:22;;;;;;;15.35;11.50;;;19.80;43.40;;;;;;5134165;27;20063;-10
2022/11/30 09:14:48;;;;;;;14.73;10.57;;;19.70;42.80;;;;;;5133818;27;20402;-11
2022/11/30 09:17:14;;;;;;;16.05;11.60;;;19.80;42.90;;;;;;5133923;27;20158;-10
2022/11/30 09:19:40;;;;;;;16.35;11.48;;;19.70;42.90;;;;;;5134266;27;20208;-10
2022/11/30 09:22:06;;;;;;;15.68;11.52;;;19.70;42.80;;;;;;5133973;27;20047;-10
2022/11/30 09:24:32;;;;;;;17.92;11.68;;;19.70;42.90;;;;;;5133920;27;20103;-11
2022/11/30 09:26:57;;;;;;;16.23;11.32;;;19.70;42.90;;;;;;5133855;27;20410;-10
2022/11/30 09:29:23;;;;;;;15.20;11.10;;;19.70;42.80;;;;;;5133701;27;20054;-11
2022/11/30 09:31:49;;;;;;;14.82;11.38;;;19.70;42.90;;;;;;5134038;27;20069;-10
2022/11/30 09:34:14;;;;;;;14.10;10.63;;;19.70;42.90;;;;;;5133496;27;20074;-11
2022/11/30 09:36:40;;;;;;;16.60;11.98;;;19.70;42.90;;;;;;5133842;27;20107;-11
2022/11/30 09:39:08;;;;;;;14.60;10.70;;;19.70;42.90;;;;;;5133368;27;20054;-10
2022/11/30 09:41:40;;;;;;;16.40;11.20;;;19.70;42.90;;;;;;5133733;27;20463;-10
2022/11/30 09:44:35;;;;;;;16.25;11.30;;;19.70;42.90;;;;;;5133979;27;20138;-10
2022/11/30 09:47:36;;;;;;;15.27;11.57;;;19.70;42.90;;;;;;5133221;27;20137;-10
2022/11/30 09:50:30;;;;;;;15.07;11.65;;;19.70;42.90;;;;;;5060266;28;20131;-11
2022/11/30 09:53:02;;;;;;;15.00;10.95;;;19.70;42.90;;;;;;5130416;27;20130;-11
2022/11/30 09:55:40;;;;;;;15.18;11.10;;;19.70;42.90;;;;;;5132921;27;20496;-10
2022/11/30 09:58:11;;;;;;;13.88;10.80;;;19.70;42.90;;;;;;5133308;27;20047;-11
2022/11/30 10:00:38;;;;;;;13.73;10.50;;;19.70;42.90;;;;;;5114854;27;20079;-11
2022/11/30 10:03:05;;;;;;;14.55;10.98;;;19.80;42.90;;;;;;5133056;27;20077;-11
2022/11/30 10:05:51;;;;;;;16.27;11.52;;;19.70;42.90;;;;;;5112563;28;20487;-11
2022/11/30 10:08:31;;;;;;;16.92;11.20;;;19.70;42.90;;;;;;5112642;28;20062;-11
2022/11/30 10:11:15;;;;;;;15.13;11.52;;;19.70;42.90;;;;;;5112672;28;20067;-10
2022/11/30 10:13:41;;;;;;;14.52;10.93;;;19.70;42.90;;;;;;5111817;28;20047;-10
2022/11/30 10:16:25;;;;;;;18.48;11.80;;;19.70;42.90;;;;;;5112263;28;20048;-11
2022/11/30 10:19:06;;;;;;;17.00;11.68;;;19.70;43.00;;;;;;5111310;28;20458;-11
2022/11/30 10:21:43;;;;;;;15.48;11.52;;;19.70;43.00;;;;;;5110559;28;20044;-10
2022/11/30 10:24:42;;;;;;;17.92;12.20;;;19.70;43.00;;;;;;5112520;28;20044;-10
2022/11/30 10:27:35;;;;;;;15.68;10.75;;;19.70;43.00;;;;;;5110990;28;20048;-10
2022/11/30 10:30:02;;;;;;;16.52;11.70;;;19.70;43.00;;;;;;5097752;28;20047;-11
2022/11/30 10:32:35;;;;;;;16.55;11.88;;;19.80;43.00;;;;;;5111660;28;20079;-11
2022/11/30 10:35:22;;;;;;;15.52;11.35;;;19.70;43.00;;;;;;5110054;28;20463;-12
2022/11/30 10:37:52;;;;;;;17.63;12.10;;;19.80;43.00;;;;;;5111102;28;20554;-11
2022/11/30 10:40:37;;;;;;;16.25;11.52;;;19.70;42.90;;;;;;5111182;28;20052;-11
2022/11/30 10:43:23;;;;;;;14.98;10.68;;;19.80;43.00;;;;;;5111069;28;20138;-10
2022/11/30 10:45:50;;;;;;;14.40;10.98;;;19.70;43.00;;;;;;5111441;28;20415;-11
2022/11/30 10:48:29;;;;;;;14.82;10.57;;;19.70;43.00;;;;;;5110742;28;20047;-11
2022/11/30 10:50:56;;;;;;;16.88;10.63;;;19.80;43.00;;;;;;5111757;28;20062;-10
2022/11/30 10:53:22;;;;;;;12.88;10.40;;;19.70;43.10;;;;;;5112202;28;20506;-11
2022/11/30 10:56:08;;;;;;;14.23;11.05;;;19.80;43.20;;;;;;5112284;28;20048;-11
2022/11/30 10:58:57;;;;;;;15.40;10.75;;;19.70;43.20;;;;;;5108209;28;20067;-11
2022/11/30 11:01:30;;;;;;;16.35;11.70;;;19.70;43.10;;;;;;5111287;28;20115;-11
2022/11/30 11:04:15;;;;;;;16.75;11.63;;;19.70;43.10;;;;;;5111325;28;20047;-11
2022/11/30 11:06:52;;;;;;;16.15;11.88;;;19.80;43.20;;;;;;5112928;28;20543;-11
2022/11/30 11:09:31;;;;;;;15.32;11.48;;;19.80;43.10;;;;;;5113207;28;20044;-11
2022/11/30 11:12:00;;;;;;;20.35;11.75;;;19.80;43.10;;;;;;5113417;28;20429;-11
2022/11/30 11:14:27;;;;;;;15.93;11.63;;;19.80;43.10;;;;;;5113095;28;20051;-13
2022/11/30 11:16:59;;;;;;;14.30;11.20;;;19.70;43.10;;;;;;5113485;28;20051;-13
2022/11/30 11:19:40;;;;;;;15.48;11.15;;;19.70;43.10;;;;;;5114061;28;20056;-12
2022/11/30 11:22:20;;;;;;;14.02;11.20;;;19.70;43.10;;;;;;5114317;28;20054;-11
2022/11/30 11:24:48;;;;;;;14.77;10.95;;;19.70;43.20;;;;;;5114726;28;20051;-12
2022/11/30 11:27:26;;;;;;;14.82;11.00;;;19.70;43.20;;;;;;5114316;28;20505;-12
2022/11/30 11:30:25;;;;;;;18.60;11.48;;;19.70;43.20;;;;;;5113338;28;20058;-13
2022/11/30 11:33:00;;;;;;;13.82;11.05;;;19.70;43.10;;;;;;5109601;28;20048;-11
2022/11/30 11:35:41;;;;;;;14.95;11.52;;;19.70;43.10;;;;;;5115342;28;20062;-11
2022/11/30 11:38:43;;;;;;;13.65;10.32;;;19.70;43.10;;;;;;5115334;28;20097;-11
2022/11/30 11:41:18;;;;;;;15.10;11.35;;;19.80;43.10;;;;;;5115044;28;20158;-11
2022/11/30 11:44:08;;;;;;;16.60;11.52;;;19.80;43.00;;;;;;5115019;28;20082;-11
2022/11/30 11:46:37;;;;;;;15.45;10.57;;;19.80;43.10;;;;;;5114883;28;20048;-11
2022/11/30 11:49:20;;;;;;;17.70;10.65;;;19.80;43.00;;;;;;5112921;28;20086;-12
2022/11/30 11:51:46;;;;;;;17.58;11.30;;;19.80;43.10;;;;;;5112542;28;20047;-12
2022/11/30 11:54:19;;;;;;;15.38;11.55;;;19.80;43.00;;;;;;5113228;28;20099;-13
2022/11/30 11:56:45;;;;;;;14.35;10.73;;;19.80;43.00;;;;;;5113765;28;20081;-12
2022/11/30 11:59:39;;;;;;;16.48;10.95;;;19.70;43.00;;;;;;5114148;28;20043;-11
2022/11/30 12:02:05;;;;;;;18.63;11.68;;;19.80;43.10;;;;;;5114176;28;20406;-12
2022/11/30 12:04:46;;;;;;;16.63;11.18;;;19.80;43.00;;;;;;5114376;28;20047;-11
2022/11/30 12:07:40;;;;;;;15.38;10.65;;;19.70;43.00;;;;;;5096078;28;20112;-11
2022/11/30 12:10:20;;;;;;;14.00;10.50;;;19.70;43.10;;;;;;5114050;28;20055;-11
2022/11/30 12:12:46;;;;;;;14.50;10.57;;;19.70;43.10;;;;;;5114666;28;20047;-11
2022/11/30 12:15:12;;;;;;;16.55;10.73;;;19.70;43.10;;;;;;5113921;28;20058;-11
2022/11/30 12:17:44;;;;;;;14.38;10.60;;;19.70;43.10;;;;;;5113453;28;20051;-11
2022/11/30 12:20:17;;;;;;;16.13;10.52;;;19.70;43.20;;;;;;5113151;28;20391;-12
2022/11/30 12:23:15;;;;;;;14.23;10.27;;;19.70;43.10;;;;;;5112955;28;20518;-11
2022/11/30 12:25:52;;;;;;;13.30;10.52;;;19.70;43.10;;;;;;5114323;28;20039;-11
2022/11/30 12:28:30;;;;;;;16.42;10.70;;;19.70;43.20;;;;;;5114209;28;20512;-11
2022/11/30 12:31:13;;;;;;;14.45;10.82;;;19.70;43.30;;;;;;5113566;28;20147;-12
2022/11/30 12:34:09;;;;;;;16.55;11.13;;;19.80;43.00;;;;;;5112876;28;20075;-11
2022/11/30 12:36:49;;;;;;;14.88;11.02;;;19.80;42.90;;;;;;5114074;28;20487;-11
2022/11/30 12:39:51;;;;;;;16.88;11.27;;;19.90;42.80;;;;;;5112504;28;20095;-12
2022/11/30 12:42:28;;;;;;;13.98;10.18;;;19.90;42.80;;;;;;5111793;28;20062;-12
2022/11/30 12:45:20;;;;;;;15.43;11.13;;;19.90;42.80;;;;;;5112966;28;20055;-11
2022/11/30 12:47:59;;;;;;;15.30;10.50;;;19.90;42.70;;;;;;5112887;28;20051;-11
2022/11/30 12:50:45;;;;;;;13.50;9.98;;;19.90;42.70;;;;;;5112212;28;20112;-12
2022/11/30 12:53:38;;;;;;;16.67;11.18;;;19.90;42.70;;;;;;5111463;28;20471;-11
2022/11/30 12:56:24;;;;;;;15.57;10.38;;;19.90;42.70;;;;;;5112445;28;20048;-12
2022/11/30 12:58:59;;;;;;;16.13;11.00;;;19.90;42.60;;;;;;5112795;28;20052;-11